createdAt,value
2022-12-25T00:01:33.634Z,7.90
2022-12-25T00:05:38.445Z,8.00
2022-12-25T00:09:40.184Z,8.00
2022-12-25T00:13:42.072Z,8.00
2022-12-25T00:17:44.009Z,8.00
2022-12-25T00:21:45.713Z,8.10
2022-12-25T00:25:47.527Z,8.10
2022-12-25T00:29:50.088Z,8.10
2022-12-25T00:33:52.206Z,8.10
2022-12-25T00:37:53.954Z,8.10
2022-12-25T00:42:14.165Z,8.10
2022-12-25T00:46:15.941Z,8.00
2022-12-25T00:50:18.217Z,8.10
2022-12-25T00:54:20.247Z,8.00
2022-12-25T00:58:22.491Z,8.00
2022-12-25T01:02:24.496Z,7.90
2022-12-25T01:06:26.831Z,7.80
2022-12-25T01:10:28.596Z,7.80
2022-12-25T01:14:30.332Z,7.70
2022-12-25T01:18:32.116Z,7.60
2022-12-25T01:22:33.827Z,7.60
2022-12-25T01:26:35.564Z,7.40
2022-12-25T01:30:37.314Z,7.20
2022-12-25T01:34:39.226Z,7.00
2022-12-25T01:38:41.010Z,6.90
2022-12-25T01:42:42.721Z,6.90
2022-12-25T01:46:44.509Z,6.90
2022-12-25T01:50:49.949Z,6.80
2022-12-25T01:55:00.407Z,6.80
2022-12-25T01:59:02.159Z,6.70
2022-12-25T02:03:04.101Z,6.60
2022-12-25T02:07:14.753Z,6.60
2022-12-25T02:11:36.462Z,6.50
2022-12-25T02:16:05.992Z,6.50
2022-12-25T02:20:33.668Z,6.40
2022-12-25T02:24:50.348Z,6.40
2022-12-25T02:29:09.888Z,6.40
2022-12-25T02:33:35.710Z,6.40
2022-12-25T02:37:50.045Z,6.30
2022-12-25T02:41:52.871Z,6.30
2022-12-25T02:46:22.805Z,6.30
2022-12-25T02:50:43.632Z,6.30
2022-12-25T02:55:11.209Z,6.20
2022-12-25T02:59:32.664Z,6.10
2022-12-25T03:04:02.908Z,6.00
2022-12-25T03:08:44.915Z,5.90
2022-12-25T03:13:18.946Z,5.80
2022-12-25T03:17:26.863Z,5.70
2022-12-25T03:21:53.884Z,5.60
2022-12-25T03:26:14.180Z,5.50
2022-12-25T03:30:34.681Z,5.50
2022-12-25T03:35:19.165Z,5.50
2022-12-25T03:40:01.302Z,5.60
2022-12-25T03:44:43.383Z,5.60
2022-12-25T03:49:04.316Z,5.50
2022-12-25T03:53:29.286Z,5.40
2022-12-25T03:57:53.760Z,5.40
2022-12-25T04:02:14.507Z,5.30
2022-12-25T04:06:35.752Z,5.30
2022-12-25T04:10:56.128Z,5.40
2022-12-25T04:15:33.574Z,5.40
2022-12-25T04:19:53.950Z,5.40
2022-12-25T04:24:14.175Z,5.20
2022-12-25T04:28:34.517Z,5.20
2022-12-25T04:32:54.933Z,5.00
2022-12-25T04:36:56.865Z,5.00
2022-12-25T04:41:02.711Z,5.00
2022-12-25T04:45:04.890Z,4.90
2022-12-25T04:49:06.611Z,4.80
2022-12-25T04:53:08.425Z,4.80
2022-12-25T04:57:10.123Z,4.70
2022-12-25T05:01:12.213Z,4.70
2022-12-25T05:05:14.184Z,4.70
2022-12-25T05:09:16.013Z,4.60
2022-12-25T05:13:17.819Z,4.60
2022-12-25T05:17:19.538Z,4.50
2022-12-25T05:21:23.754Z,4.50
2022-12-25T05:25:25.552Z,4.50
2022-12-25T05:29:27.587Z,4.50
2022-12-25T05:33:29.320Z,4.50
2022-12-25T05:37:31.461Z,4.50
2022-12-25T05:41:34.744Z,4.40
2022-12-25T05:45:36.941Z,4.40
2022-12-25T05:49:38.744Z,4.40
2022-12-25T05:53:41.363Z,4.40
2022-12-25T05:57:43.176Z,4.30
2022-12-25T06:01:45.119Z,4.20
2022-12-25T06:05:47.073Z,4.20
2022-12-25T06:09:48.907Z,4.10
2022-12-25T06:13:51.890Z,4.10
2022-12-25T06:17:53.612Z,4.10
2022-12-25T06:21:55.456Z,4.10
2022-12-25T06:25:57.190Z,4.00
2022-12-25T06:29:58.936Z,4.00
2022-12-25T06:34:00.927Z,4.00
2022-12-25T06:38:02.777Z,4.00
2022-12-25T06:42:04.561Z,4.00
2022-12-25T06:46:10.470Z,4.10
2022-12-25T06:50:16.332Z,4.00
2022-12-25T06:54:18.334Z,4.00
2022-12-25T06:58:20.122Z,4.00
2022-12-25T07:02:22.781Z,4.00
2022-12-25T07:06:53.747Z,4.10
2022-12-25T07:10:56.981Z,4.10
2022-12-25T07:15:06.645Z,4.10
2022-12-25T07:19:23.878Z,4.10
2022-12-25T07:23:26.963Z,4.20
2022-12-25T07:27:28.733Z,4.20
2022-12-25T07:31:30.558Z,4.20
2022-12-25T07:35:32.366Z,4.30
2022-12-25T07:39:35.308Z,4.30
2022-12-25T07:43:37.226Z,4.30
2022-12-25T07:47:39.680Z,4.40
2022-12-25T07:51:41.545Z,4.40
2022-12-25T07:55:43.356Z,4.60
2022-12-25T07:59:45.136Z,4.70
2022-12-25T08:03:55.325Z,4.80
2022-12-25T08:07:58.169Z,4.90
2022-12-25T08:12:00.163Z,5.20
2022-12-25T08:16:04.284Z,5.20
2022-12-25T08:20:07.034Z,5.30
2022-12-25T08:24:08.828Z,5.50
2022-12-25T08:28:10.758Z,5.70
2022-12-25T08:32:12.753Z,5.80
2022-12-25T08:36:15.847Z,5.80
2022-12-25T08:40:17.949Z,6.00
2022-12-25T08:44:19.765Z,6.10
2022-12-25T08:48:21.535Z,6.20
2022-12-25T08:52:23.362Z,6.20
2022-12-25T08:56:25.211Z,6.20
2022-12-25T09:00:27.047Z,6.30
2022-12-25T09:04:28.889Z,6.40
2022-12-25T09:08:30.846Z,6.60
2022-12-25T09:12:32.702Z,6.60
2022-12-25T09:16:37.432Z,6.70
2022-12-25T09:20:39.270Z,6.90
2022-12-25T09:24:41.106Z,6.90
2022-12-25T09:28:50.333Z,6.80
2022-12-25T09:32:52.884Z,6.70
2022-12-25T09:36:54.762Z,6.70
2022-12-25T09:41:28.380Z,6.70
2022-12-25T09:45:35.949Z,6.80
2022-12-25T09:50:01.084Z,6.70
2022-12-25T09:54:14.732Z,6.70
2022-12-25T09:58:20.281Z,6.70
2022-12-25T10:02:53.762Z,6.60
2022-12-25T10:07:38.290Z,6.50
2022-12-25T10:12:00.798Z,6.60
2022-12-25T10:16:30.565Z,6.70
2022-12-25T10:20:53.020Z,6.90
2022-12-25T10:24:54.927Z,7.00
2022-12-25T10:29:15.378Z,7.00
2022-12-25T10:33:21.790Z,7.00
2022-12-25T10:37:24.915Z,7.00
2022-12-25T10:41:45.552Z,7.00
2022-12-25T10:45:53.111Z,7.10
2022-12-25T10:49:56.983Z,7.20
2022-12-25T10:53:59.024Z,7.30
2022-12-25T10:58:03.368Z,7.30
2022-12-25T11:02:21.315Z,7.30
2022-12-25T11:06:29.654Z,7.50
2022-12-25T11:10:44.132Z,7.60
2022-12-25T11:14:57.673Z,7.70
2022-12-25T11:19:00.155Z,7.90
2022-12-25T11:23:02.090Z,8.10
2022-12-25T11:27:06.441Z,8.30
2022-12-25T11:31:13.233Z,8.50
2022-12-25T11:35:18.695Z,8.50
2022-12-25T11:39:31.901Z,8.60
2022-12-25T11:43:48.463Z,8.70
2022-12-25T11:48:05.567Z,8.70
2022-12-25T11:52:08.186Z,8.80
2022-12-25T11:56:23.297Z,8.80
2022-12-25T12:00:25.134Z,8.90
2022-12-25T12:04:36.941Z,9.00
2022-12-25T12:08:42.638Z,9.10
2022-12-25T12:13:13.059Z,9.20
2022-12-25T12:17:16.036Z,9.20
2022-12-25T12:21:23.287Z,9.30
2022-12-25T12:25:25.127Z,9.30
2022-12-25T12:29:40.935Z,9.40
2022-12-25T12:33:58.075Z,9.50
2022-12-25T12:38:17.301Z,9.50
2022-12-25T12:42:22.697Z,9.60
2022-12-25T12:46:31.086Z,9.70
2022-12-25T12:50:44.029Z,9.90
2022-12-25T12:55:13.167Z,10.10
2022-12-25T12:59:15.010Z,10.30
2022-12-25T13:04:01.437Z,10.30
2022-12-25T13:08:35.542Z,10.30
2022-12-25T13:12:37.583Z,10.30
2022-12-25T13:16:41.012Z,10.20
2022-12-25T13:21:01.577Z,10.20
2022-12-25T13:25:11.723Z,10.20
2022-12-25T13:29:36.773Z,10.10
2022-12-25T13:33:39.157Z,10.10
2022-12-25T13:37:40.955Z,10.10
2022-12-25T13:42:06.237Z,10.00
2022-12-25T13:46:08.056Z,10.00
2022-12-25T13:50:31.708Z,10.00
2022-12-25T13:54:33.424Z,9.90
2022-12-25T13:58:37.123Z,9.80
2022-12-25T14:02:39.121Z,9.80
2022-12-25T14:06:41.745Z,9.70
2022-12-25T14:10:43.541Z,9.70
2022-12-25T14:14:45.264Z,9.60
2022-12-25T14:18:58.292Z,9.60
2022-12-25T14:23:00.834Z,9.60
2022-12-25T14:27:07.840Z,9.60
2022-12-25T14:31:11.585Z,9.50
2022-12-25T14:35:18.211Z,9.50
2022-12-25T14:39:35.423Z,9.50
2022-12-25T14:43:37.303Z,9.50
2022-12-25T14:47:57.761Z,9.40
2022-12-25T14:52:09.798Z,9.30
2022-12-25T14:56:17.327Z,9.30
2022-12-25T15:00:37.868Z,9.30
2022-12-25T15:04:43.057Z,9.20
2022-12-25T15:08:56.308Z,9.10
2022-12-25T15:12:58.090Z,9.10
2022-12-25T15:17:00.812Z,9.10
2022-12-25T15:21:02.604Z,9.10
2022-12-25T15:25:04.927Z,9.10
2022-12-25T15:29:07.427Z,9.10
2022-12-25T15:33:16.859Z,9.10
2022-12-25T15:37:18.951Z,9.00
2022-12-25T15:41:43.520Z,9.10
2022-12-25T15:45:46.470Z,9.10
2022-12-25T15:49:52.255Z,9.10
2022-12-25T15:53:54.113Z,9.10
2022-12-25T15:57:58.301Z,9.20
2022-12-25T16:02:02.090Z,9.20
2022-12-25T16:06:05.541Z,9.20
2022-12-25T16:10:14.812Z,9.30
2022-12-25T16:14:16.983Z,9.30
2022-12-25T16:18:19.587Z,9.30
2022-12-25T16:22:28.751Z,9.30
2022-12-25T16:26:31.613Z,9.30
2022-12-25T16:30:33.534Z,9.40
2022-12-25T16:34:39.915Z,9.40
2022-12-25T16:38:42.595Z,9.40
2022-12-25T16:42:44.565Z,9.30
2022-12-25T16:46:48.948Z,9.40
2022-12-25T16:50:51.363Z,9.40
2022-12-25T16:54:55.665Z,9.50
2022-12-25T16:58:58.171Z,9.50
2022-12-25T17:03:01.116Z,9.50
2022-12-25T17:07:03.425Z,9.50
2022-12-25T17:11:05.740Z,9.50
2022-12-25T17:15:15.116Z,9.50
2022-12-25T17:19:22.294Z,9.50
2022-12-25T17:23:24.283Z,9.50
2022-12-25T17:27:26.823Z,9.50
2022-12-25T17:31:28.953Z,9.50
2022-12-25T17:35:30.932Z,9.40
2022-12-25T17:39:32.862Z,9.40
2022-12-25T17:43:38.069Z,9.50
2022-12-25T17:47:45.170Z,9.50
2022-12-25T17:51:47.682Z,9.50
2022-12-25T17:55:54.691Z,9.50
2022-12-25T17:59:59.316Z,9.50
2022-12-25T18:04:01.496Z,9.60
2022-12-25T18:08:06.813Z,9.70
2022-12-25T18:12:09.434Z,9.70
2022-12-25T18:16:12.527Z,9.80
2022-12-25T18:20:14.619Z,9.80
2022-12-25T18:24:17.775Z,9.80
2022-12-25T18:28:19.801Z,9.80
2022-12-25T18:32:27.840Z,9.70
2022-12-25T18:36:37.165Z,9.80
2022-12-25T18:40:56.784Z,9.80
2022-12-25T18:44:58.828Z,9.80
2022-12-25T18:49:06.047Z,9.80
2022-12-25T18:53:11.140Z,9.80
2022-12-25T18:57:16.327Z,9.80
2022-12-25T19:01:21.759Z,9.80
2022-12-25T19:05:24.434Z,9.90
2022-12-25T19:09:28.693Z,9.90
2022-12-25T19:13:30.893Z,9.90
2022-12-25T19:17:34.294Z,9.90
2022-12-25T19:21:36.402Z,9.90
2022-12-25T19:25:39.657Z,10.00
2022-12-25T19:29:41.482Z,10.10
2022-12-25T19:33:43.552Z,10.10
2022-12-25T19:37:45.300Z,10.20
2022-12-25T19:41:48.462Z,10.20
2022-12-25T19:45:50.381Z,10.20
2022-12-25T19:49:59.594Z,10.30
2022-12-25T19:54:07.758Z,10.30
2022-12-25T19:58:09.588Z,10.30
2022-12-25T20:02:11.589Z,10.30
2022-12-25T20:06:24.052Z,10.40
2022-12-25T20:10:25.939Z,10.50
2022-12-25T20:14:27.924Z,10.60
2022-12-25T20:18:29.904Z,10.70
2022-12-25T20:22:31.848Z,10.70
2022-12-25T20:26:34.885Z,10.90
2022-12-25T20:30:40.048Z,10.90
2022-12-25T20:34:41.890Z,11.10
2022-12-25T20:38:43.732Z,11.10
2022-12-25T20:42:45.632Z,11.20
2022-12-25T20:46:47.571Z,11.10
2022-12-25T20:50:49.614Z,11.10
2022-12-25T20:54:53.970Z,11.00
2022-12-25T20:58:57.812Z,10.90
2022-12-25T21:02:59.705Z,10.80
2022-12-25T21:07:02.547Z,10.90
2022-12-25T21:11:13.361Z,10.80
2022-12-25T21:15:16.009Z,10.80
2022-12-25T21:19:17.929Z,10.70
2022-12-25T21:23:20.230Z,10.70
2022-12-25T21:27:22.056Z,10.70
2022-12-25T21:31:24.571Z,10.70
2022-12-25T21:35:26.460Z,10.70
2022-12-25T21:39:28.183Z,10.70
2022-12-25T21:43:29.947Z,10.70
2022-12-25T21:48:01.535Z,10.80
2022-12-25T21:52:08.800Z,10.70
2022-12-25T21:56:10.734Z,10.70
2022-12-25T22:00:12.974Z,10.70
2022-12-25T22:04:15.748Z,10.70
2022-12-25T22:08:17.582Z,10.70
2022-12-25T22:12:39.747Z,10.70
2022-12-25T22:16:59.888Z,10.70
2022-12-25T22:21:01.822Z,10.70
2022-12-25T22:25:06.507Z,10.70
2022-12-25T22:29:08.347Z,10.70
2022-12-25T22:33:10.326Z,10.70
2022-12-25T22:37:15.424Z,10.60
2022-12-25T22:41:17.128Z,10.60
2022-12-25T22:45:19.018Z,10.60
2022-12-25T22:49:20.976Z,10.60
2022-12-25T22:53:22.794Z,10.60
2022-12-25T22:57:24.868Z,10.70
2022-12-25T23:01:26.699Z,10.70
2022-12-25T23:05:28.750Z,10.80
2022-12-25T23:09:31.000Z,10.90
2022-12-25T23:13:51.264Z,10.90
2022-12-25T23:18:11.686Z,10.90
2022-12-25T23:22:32.219Z,10.80
2022-12-25T23:26:34.092Z,10.70
2022-12-25T23:30:35.808Z,10.70
2022-12-25T23:34:39.610Z,10.70
2022-12-25T23:38:41.324Z,10.70
2022-12-25T23:42:43.040Z,10.70
2022-12-25T23:46:53.235Z,10.70
2022-12-25T23:50:55.427Z,10.70
2022-12-25T23:54:57.144Z,10.80
2022-12-25T23:58:58.945Z,10.90
